createdAt,value
2018-06-27T00:00:38.837Z,18.70
2018-06-27T00:03:06.259Z,18.70
2018-06-27T00:05:33.706Z,18.70
2018-06-27T00:08:01.107Z,18.70
2018-06-27T00:10:28.552Z,18.60
2018-06-27T00:12:56.655Z,18.60
2018-06-27T00:15:24.790Z,18.60
2018-06-27T00:17:52.700Z,18.60
2018-06-27T00:20:20.175Z,18.50
2018-06-27T00:22:47.603Z,18.50
2018-06-27T00:25:15.035Z,18.50
2018-06-27T00:27:42.480Z,18.40
2018-06-27T00:30:09.883Z,18.40
2018-06-27T00:32:37.335Z,18.40
2018-06-27T00:35:04.723Z,18.40
2018-06-27T00:37:32.112Z,18.30
2018-06-27T00:39:59.634Z,18.30
2018-06-27T00:42:27.035Z,18.30
2018-06-27T00:44:54.456Z,18.20
2018-06-27T00:47:21.869Z,18.20
2018-06-27T00:49:49.680Z,18.20
2018-06-27T00:52:17.068Z,18.10
2018-06-27T00:54:44.511Z,18.10
2018-06-27T00:57:11.936Z,18.10
2018-06-27T00:59:39.358Z,18.00
2018-06-27T01:02:06.779Z,18.00
2018-06-27T01:04:34.208Z,18.00
2018-06-27T01:07:01.624Z,18.00
2018-06-27T01:09:29.031Z,17.90
2018-06-27T01:11:56.480Z,17.90
2018-06-27T01:14:23.930Z,17.90
2018-06-27T01:16:51.379Z,17.80
2018-06-27T01:19:18.807Z,17.80
2018-06-27T01:24:13.586Z,17.70
2018-06-27T01:26:41.028Z,17.70
2018-06-27T01:29:08.472Z,17.60
2018-06-27T01:31:35.872Z,17.60
2018-06-27T01:34:03.338Z,17.50
2018-06-27T01:36:30.743Z,17.40
2018-06-27T01:38:58.143Z,17.40
2018-06-27T01:41:25.603Z,17.40
2018-06-27T01:43:52.997Z,17.30
2018-06-27T01:46:20.420Z,17.30
2018-06-27T01:48:47.822Z,17.20
2018-06-27T01:51:15.239Z,17.20
2018-06-27T01:53:42.675Z,17.20
2018-06-27T01:56:10.819Z,17.10
2018-06-27T01:58:38.224Z,17.00
2018-06-27T02:01:06.183Z,16.90
2018-06-27T02:03:33.620Z,16.90
2018-06-27T02:06:01.272Z,16.80
2018-06-27T02:08:28.687Z,16.80
2018-06-27T02:10:56.262Z,16.80
2018-06-27T02:13:23.656Z,16.70
2018-06-27T02:15:51.112Z,16.70
2018-06-27T02:18:18.751Z,16.70
2018-06-27T02:20:46.170Z,16.60
2018-06-27T02:23:13.567Z,16.60
2018-06-27T02:25:41.199Z,16.60
2018-06-27T02:28:09.503Z,16.60
2018-06-27T02:30:37.151Z,16.60
2018-06-27T02:33:04.575Z,16.50
2018-06-27T02:35:32.001Z,16.50
2018-06-27T02:37:59.470Z,16.40
2018-06-27T02:40:26.935Z,16.40
2018-06-27T02:42:54.731Z,16.30
2018-06-27T02:45:22.139Z,16.30
2018-06-27T02:47:49.574Z,16.20
2018-06-27T02:50:17.214Z,16.20
2018-06-27T02:52:44.896Z,16.20
2018-06-27T02:55:12.640Z,16.10
2018-06-27T02:57:40.336Z,16.10
2018-06-27T03:00:09.222Z,16.10
2018-06-27T03:02:36.746Z,16.10
2018-06-27T03:05:04.073Z,16.10
2018-06-27T03:07:31.477Z,16.10
2018-06-27T03:09:58.888Z,16.10
2018-06-27T03:12:26.272Z,16.10
2018-06-27T03:14:53.672Z,16.10
2018-06-27T03:17:21.106Z,16.00
2018-06-27T03:19:48.574Z,16.00
2018-06-27T03:22:16.058Z,16.00
2018-06-27T03:24:43.463Z,15.90
2018-06-27T03:27:10.891Z,16.00
2018-06-27T03:29:38.362Z,15.90
2018-06-27T03:32:05.753Z,15.90
2018-06-27T03:34:33.168Z,15.80
2018-06-27T03:37:00.571Z,15.80
2018-06-27T03:39:28.002Z,15.80
2018-06-27T03:41:55.400Z,15.70
2018-06-27T03:44:22.851Z,15.70
2018-06-27T03:46:50.302Z,15.70
2018-06-27T03:49:17.903Z,15.70
2018-06-27T03:51:45.294Z,15.70
2018-06-27T03:54:12.702Z,15.70
2018-06-27T03:56:40.098Z,15.60
2018-06-27T03:59:07.770Z,15.60
2018-06-27T04:01:35.068Z,15.60
2018-06-27T04:04:02.514Z,15.50
2018-06-27T04:06:29.948Z,15.50
2018-06-27T04:08:57.368Z,15.50
2018-06-27T04:11:24.794Z,15.50
2018-06-27T04:13:52.220Z,15.40
2018-06-27T04:16:19.709Z,15.40
2018-06-27T04:18:47.110Z,15.40
2018-06-27T04:21:14.567Z,15.40
2018-06-27T04:23:41.967Z,15.40
2018-06-27T04:26:09.375Z,15.50
2018-06-27T04:28:36.796Z,15.50
2018-06-27T04:31:04.230Z,15.50
2018-06-27T04:33:31.634Z,15.50
2018-06-27T04:35:59.276Z,15.60
2018-06-27T04:38:26.647Z,15.60
2018-06-27T04:40:54.043Z,15.60
2018-06-27T04:43:21.614Z,15.60
2018-06-27T04:45:49.041Z,15.60
2018-06-27T04:48:16.444Z,15.70
2018-06-27T04:50:43.860Z,15.70
2018-06-27T04:53:11.270Z,15.70
2018-06-27T04:55:38.717Z,15.80
2018-06-27T04:58:06.148Z,15.80
2018-06-27T05:00:33.543Z,15.90
2018-06-27T05:03:00.939Z,16.10
2018-06-27T05:05:28.355Z,16.00
2018-06-27T05:07:55.787Z,16.10
2018-06-27T05:10:23.187Z,16.10
2018-06-27T05:12:50.601Z,16.20
2018-06-27T05:15:18.092Z,16.20
2018-06-27T05:17:45.532Z,16.30
2018-06-27T05:20:13.220Z,16.30
2018-06-27T05:22:40.623Z,16.40
2018-06-27T05:25:37.595Z,16.40
2018-06-27T05:28:05.010Z,16.50
2018-06-27T05:30:32.415Z,16.60
2018-06-27T05:32:59.837Z,16.60
2018-06-27T05:35:27.259Z,16.70
2018-06-27T05:37:54.704Z,16.70
2018-06-27T05:40:22.127Z,16.80
2018-06-27T05:42:49.776Z,16.80
2018-06-27T05:45:17.286Z,17.00
2018-06-27T05:47:44.731Z,17.20
2018-06-27T05:50:19.067Z,17.40
2018-06-27T05:52:46.567Z,17.80
2018-06-27T05:55:13.994Z,18.10
2018-06-27T05:57:41.427Z,18.40
2018-06-27T06:00:09.543Z,18.70
2018-06-27T06:02:37.158Z,19.10
2018-06-27T06:05:04.811Z,19.40
2018-06-27T06:07:32.259Z,19.80
2018-06-27T06:09:59.949Z,20.10
2018-06-27T06:12:27.407Z,20.30
2018-06-27T06:14:55.196Z,20.70
2018-06-27T06:17:22.601Z,20.90
2018-06-27T06:19:50.166Z,21.20
2018-06-27T06:22:17.883Z,21.40
2018-06-27T06:24:45.952Z,21.60
2018-06-27T06:27:14.383Z,21.80
2018-06-27T06:29:42.878Z,22.00
2018-06-27T06:32:10.367Z,22.20
2018-06-27T06:34:38.283Z,22.50
2018-06-27T06:37:05.755Z,22.80
2018-06-27T06:39:33.439Z,23.10
2018-06-27T06:42:01.272Z,23.30
2018-06-27T06:44:29.183Z,23.60
2018-06-27T06:46:56.574Z,23.80
2018-06-27T06:49:23.994Z,24.00
2018-06-27T06:51:51.409Z,24.10
2018-06-27T06:54:18.839Z,24.30
2018-06-27T06:56:46.303Z,24.60
2018-06-27T06:59:13.705Z,24.70
2018-06-27T07:01:41.119Z,24.90
2018-06-27T07:04:08.543Z,25.00
2018-06-27T07:06:35.967Z,25.20
2018-06-27T07:09:05.630Z,25.30
2018-06-27T07:11:33.071Z,25.50
2018-06-27T07:16:27.892Z,25.70
2018-06-27T07:18:55.299Z,25.80
2018-06-27T07:21:22.711Z,25.90
2018-06-27T07:23:50.803Z,26.10
2018-06-27T07:26:18.229Z,26.10
2018-06-27T07:28:45.729Z,26.30
2018-06-27T07:31:13.165Z,26.30
2018-06-27T07:33:40.599Z,26.30
2018-06-27T07:36:08.065Z,26.20
2018-06-27T07:38:35.556Z,26.30
2018-06-27T07:41:03.066Z,26.30
2018-06-27T07:43:30.518Z,26.30
2018-06-27T07:45:58.004Z,26.30
2018-06-27T07:48:25.438Z,26.30
2018-06-27T07:50:52.899Z,26.30
2018-06-27T07:53:20.333Z,26.20
2018-06-27T07:55:47.767Z,26.20
2018-06-27T07:58:15.204Z,26.10
2018-06-27T08:00:42.641Z,26.00
2018-06-27T08:03:10.067Z,25.80
2018-06-27T08:05:37.531Z,25.80
2018-06-27T08:08:05.021Z,25.70
2018-06-27T08:10:32.459Z,25.70
2018-06-27T08:13:00.350Z,25.60
2018-06-27T08:15:27.778Z,25.50
2018-06-27T08:17:55.274Z,25.50
2018-06-27T08:20:22.632Z,25.50
2018-06-27T08:22:50.060Z,25.40
2018-06-27T08:25:17.520Z,25.40
2018-06-27T08:27:44.990Z,25.40
2018-06-27T08:30:12.527Z,25.40
2018-06-27T08:32:40.015Z,25.40
2018-06-27T08:35:07.449Z,25.50
2018-06-27T08:37:34.996Z,25.50
2018-06-27T08:40:02.513Z,25.50
2018-06-27T08:42:29.956Z,25.50
2018-06-27T08:44:57.416Z,25.60
2018-06-27T08:47:24.860Z,25.60
2018-06-27T08:49:52.319Z,25.70
2018-06-27T08:52:19.753Z,25.70
2018-06-27T08:54:47.522Z,25.70
2018-06-27T08:57:16.635Z,25.70
2018-06-27T08:59:44.065Z,25.70
2018-06-27T09:02:11.640Z,25.70
2018-06-27T09:04:39.520Z,25.80
2018-06-27T09:07:07.580Z,25.80
2018-06-27T09:09:34.999Z,25.80
2018-06-27T09:12:02.443Z,25.90
2018-06-27T09:17:23.888Z,26.00
2018-06-27T09:19:51.388Z,26.10
2018-06-27T09:22:18.831Z,26.10
2018-06-27T09:24:46.257Z,26.20
2018-06-27T09:27:13.682Z,26.20
2018-06-27T09:29:41.314Z,26.10
2018-06-27T09:32:08.760Z,26.30
2018-06-27T09:34:36.177Z,26.30
2018-06-27T09:37:03.655Z,26.40
2018-06-27T09:39:31.097Z,26.50
2018-06-27T09:41:58.565Z,26.60
2018-06-27T09:44:26.030Z,26.60
2018-06-27T09:46:53.463Z,26.70
2018-06-27T09:49:20.919Z,26.80
2018-06-27T09:51:48.360Z,26.90
2018-06-27T09:54:15.813Z,26.90
2018-06-27T09:56:43.267Z,26.90
2018-06-27T09:59:10.721Z,27.00
2018-06-27T10:01:38.236Z,27.00
2018-06-27T10:04:05.698Z,27.00
2018-06-27T10:06:33.114Z,27.10
2018-06-27T10:09:00.526Z,27.20
2018-06-27T10:11:28.008Z,27.20
2018-06-27T10:13:55.623Z,27.30
2018-06-27T10:16:23.091Z,27.30
2018-06-27T10:18:50.758Z,27.30
2018-06-27T10:21:18.208Z,27.30
2018-06-27T10:23:45.664Z,27.30
2018-06-27T10:26:13.099Z,27.20
2018-06-27T10:28:40.552Z,27.20
2018-06-27T10:31:08.830Z,27.30
2018-06-27T10:33:36.236Z,27.30
2018-06-27T10:36:03.744Z,27.40
2018-06-27T10:38:31.199Z,27.50
2018-06-27T10:40:58.640Z,27.60
2018-06-27T10:43:26.100Z,27.70
2018-06-27T10:45:53.540Z,27.80
2018-06-27T10:48:21.003Z,27.90
2018-06-27T10:50:48.439Z,28.00
2018-06-27T10:53:15.903Z,28.00
2018-06-27T10:55:43.337Z,28.10
2018-06-27T10:58:10.873Z,28.20
2018-06-27T11:00:38.322Z,28.20
2018-06-27T11:03:05.826Z,28.20
2018-06-27T11:05:33.232Z,28.40
2018-06-27T11:08:00.711Z,28.50
2018-06-27T11:10:28.210Z,28.50
2018-06-27T11:15:23.061Z,28.70
2018-06-27T11:17:50.498Z,28.80
2018-06-27T11:20:17.906Z,28.90
2018-06-27T11:22:45.366Z,29.00
2018-06-27T11:25:12.809Z,29.10
2018-06-27T11:27:40.239Z,29.20
2018-06-27T11:30:07.715Z,29.30
2018-06-27T11:32:35.127Z,29.30
2018-06-27T11:35:02.572Z,29.40
2018-06-27T11:37:30.004Z,29.50
2018-06-27T11:42:24.929Z,29.60
2018-06-27T11:44:52.324Z,29.70
2018-06-27T11:47:19.753Z,29.80
2018-06-27T11:49:47.203Z,29.80
2018-06-27T11:52:14.689Z,29.80
2018-06-27T11:54:42.119Z,29.90
2018-06-27T11:57:09.849Z,29.90
2018-06-27T11:59:37.414Z,30.00
2018-06-27T12:02:04.856Z,30.00
2018-06-27T12:04:32.281Z,29.90
2018-06-27T12:06:59.809Z,30.10
2018-06-27T12:09:27.259Z,30.20
2018-06-27T12:11:54.758Z,30.30
2018-06-27T12:14:22.235Z,30.40
2018-06-27T12:16:49.669Z,30.60
2018-06-27T12:19:17.125Z,30.60
2018-06-27T12:21:44.529Z,30.70
2018-06-27T12:24:21.311Z,30.80
2018-06-27T12:26:48.830Z,30.80
2018-06-27T12:29:16.280Z,30.80
2018-06-27T12:31:43.726Z,30.80
2018-06-27T12:34:11.171Z,30.80
2018-06-27T12:36:38.602Z,30.90
2018-06-27T12:39:06.517Z,30.90
2018-06-27T12:44:52.549Z,31.20
2018-06-27T12:53:58.147Z,31.30
2018-06-27T12:56:32.778Z,31.40
2018-06-27T12:59:00.244Z,31.20
2018-06-27T13:01:27.714Z,31.30
2018-06-27T13:03:55.334Z,31.40
2018-06-27T13:06:22.842Z,31.50
2018-06-27T13:08:50.402Z,31.60
2018-06-27T13:11:18.026Z,31.70
2018-06-27T13:13:45.480Z,31.90
2018-06-27T13:16:12.928Z,32.00
2018-06-27T13:18:40.391Z,32.00
2018-06-27T13:21:07.878Z,32.10
2018-06-27T13:23:35.340Z,32.20
2018-06-27T13:26:02.812Z,32.30
2018-06-27T13:28:30.275Z,32.40
2018-06-27T13:30:57.757Z,32.40
2018-06-27T13:33:25.235Z,32.40
2018-06-27T13:35:52.722Z,32.40
2018-06-27T13:38:20.238Z,32.40
2018-06-27T13:40:47.729Z,32.50
2018-06-27T13:43:15.399Z,32.60
2018-06-27T13:45:42.742Z,32.60
2018-06-27T13:48:10.219Z,32.70
2018-06-27T13:50:37.714Z,32.80
2018-06-27T13:53:05.244Z,33.00
2018-06-27T13:55:32.705Z,33.10
2018-06-27T13:58:00.124Z,33.00
2018-06-27T14:00:27.565Z,32.90
2018-06-27T14:02:55.040Z,32.90
2018-06-27T14:05:22.495Z,32.90
2018-06-27T14:07:49.971Z,32.90
2018-06-27T14:10:17.435Z,32.90
2018-06-27T14:12:44.865Z,32.90
2018-06-27T14:15:12.296Z,33.00
2018-06-27T14:17:39.769Z,33.00
2018-06-27T14:20:07.224Z,33.00
2018-06-27T14:22:34.687Z,32.90
2018-06-27T14:25:02.172Z,32.90
2018-06-27T14:27:29.641Z,32.80
2018-06-27T14:29:57.125Z,32.70
2018-06-27T14:32:24.561Z,32.60
2018-06-27T14:34:51.988Z,32.50
2018-06-27T14:37:19.477Z,32.40
2018-06-27T14:39:46.991Z,32.30
2018-06-27T14:42:14.497Z,32.30
2018-06-27T14:44:42.054Z,32.20
2018-06-27T14:47:09.541Z,32.10
2018-06-27T14:49:36.996Z,32.00
2018-06-27T14:52:04.470Z,31.90
2018-06-27T14:54:31.913Z,31.90
2018-06-27T14:56:59.395Z,31.80
2018-06-27T15:01:54.375Z,31.80
2018-06-27T15:04:22.072Z,31.80
2018-06-27T15:06:49.587Z,31.90
2018-06-27T15:09:17.155Z,31.90
2018-06-27T15:11:44.680Z,32.00
2018-06-27T15:14:12.820Z,32.00
2018-06-27T15:16:40.820Z,32.00
2018-06-27T15:19:08.274Z,32.00
2018-06-27T15:21:35.827Z,32.00
2018-06-27T15:24:03.466Z,32.00
2018-06-27T15:26:30.961Z,32.00
2018-06-27T15:28:58.450Z,32.00
2018-06-27T15:31:25.942Z,32.00
2018-06-27T15:33:53.450Z,32.00
2018-06-27T15:36:20.930Z,32.00
2018-06-27T15:38:48.375Z,32.00
2018-06-27T15:41:15.908Z,32.00
2018-06-27T15:43:43.563Z,32.00
2018-06-27T15:46:11.369Z,32.00
2018-06-27T15:48:38.839Z,32.00
2018-06-27T15:51:06.314Z,32.00
2018-06-27T15:53:33.741Z,32.00
2018-06-27T15:56:01.213Z,32.00
2018-06-27T15:58:28.695Z,32.00
2018-06-27T16:00:56.236Z,32.00
2018-06-27T16:03:23.767Z,32.10
2018-06-27T16:05:51.243Z,32.10
2018-06-27T16:08:18.749Z,32.00
2018-06-27T16:10:46.208Z,31.90
2018-06-27T16:13:13.633Z,31.80
2018-06-27T16:15:41.121Z,31.70
2018-06-27T16:18:08.651Z,31.60
2018-06-27T16:20:36.148Z,31.50
2018-06-27T16:23:03.751Z,31.40
2018-06-27T16:25:31.224Z,31.30
2018-06-27T16:27:58.748Z,31.20
2018-06-27T16:30:26.278Z,31.20
2018-06-27T16:32:53.761Z,31.10
2018-06-27T16:35:21.183Z,31.10
2018-06-27T16:37:49.151Z,31.00
2018-06-27T16:40:16.635Z,31.00
2018-06-27T16:42:44.125Z,30.90
2018-06-27T16:45:11.625Z,30.80
2018-06-27T16:47:39.102Z,30.80
2018-06-27T16:50:07.191Z,30.80
2018-06-27T16:52:34.697Z,30.70
2018-06-27T16:55:02.179Z,30.70
2018-06-27T16:57:29.667Z,30.70
2018-06-27T16:59:57.116Z,30.70
2018-06-27T17:02:24.584Z,30.80
2018-06-27T17:04:52.059Z,30.80
2018-06-27T17:07:19.565Z,30.80
2018-06-27T17:09:47.065Z,30.80
2018-06-27T17:12:14.681Z,30.80
2018-06-27T17:14:42.154Z,30.70
2018-06-27T17:17:09.622Z,30.60
2018-06-27T17:19:37.046Z,30.60
2018-06-27T17:22:04.501Z,30.50
2018-06-27T17:24:31.956Z,30.50
2018-06-27T17:26:59.439Z,30.50
2018-06-27T17:29:26.836Z,30.40
2018-06-27T17:31:54.293Z,30.40
2018-06-27T17:34:21.811Z,30.40
2018-06-27T17:36:49.292Z,30.30
2018-06-27T17:39:16.807Z,30.30
2018-06-27T17:41:44.244Z,30.20
2018-06-27T17:44:11.820Z,30.00
2018-06-27T17:46:39.293Z,29.90
2018-06-27T17:49:06.854Z,29.80
2018-06-27T17:51:34.295Z,29.60
2018-06-27T17:54:01.736Z,29.60
2018-06-27T17:56:29.518Z,29.50
2018-06-27T17:58:56.941Z,29.50
2018-06-27T18:01:24.416Z,29.50
2018-06-27T18:03:53.110Z,29.50
2018-06-27T18:06:20.647Z,29.50
2018-06-27T18:08:48.130Z,29.60
2018-06-27T18:11:15.613Z,29.70
2018-06-27T18:13:43.031Z,29.80
2018-06-27T18:16:10.515Z,29.90
2018-06-27T18:18:38.016Z,30.10
2018-06-27T18:21:05.656Z,30.30
2018-06-27T18:23:33.447Z,30.50
2018-06-27T18:26:00.895Z,30.60
2018-06-27T18:28:28.327Z,30.80
2018-06-27T18:30:55.764Z,31.00
2018-06-27T18:33:23.244Z,31.10
2018-06-27T18:35:50.695Z,31.20
2018-06-27T18:38:18.184Z,31.20
2018-06-27T18:40:45.683Z,31.30
2018-06-27T18:43:13.098Z,31.30
2018-06-27T18:45:40.527Z,31.30
2018-06-27T18:48:07.976Z,31.40
2018-06-27T18:50:35.452Z,31.40
2018-06-27T18:53:02.989Z,31.40
2018-06-27T18:55:30.429Z,31.40
2018-06-27T18:57:57.851Z,31.40
2018-06-27T19:00:25.297Z,31.40
2018-06-27T19:05:20.188Z,31.40
2018-06-27T19:07:47.648Z,31.40
2018-06-27T19:10:15.225Z,31.30
2018-06-27T19:12:42.692Z,31.30
2018-06-27T19:15:10.115Z,31.30
2018-06-27T19:17:37.566Z,31.30
2018-06-27T19:20:05.022Z,31.30
2018-06-27T19:22:32.481Z,31.20
2018-06-27T19:25:00.006Z,31.20
2018-06-27T19:27:27.525Z,31.20
2018-06-27T19:29:55.171Z,31.10
2018-06-27T19:32:22.659Z,30.90
2018-06-27T19:34:50.084Z,30.70
2018-06-27T19:37:17.832Z,30.50
2018-06-27T19:39:45.326Z,30.30
2018-06-27T19:42:13.062Z,30.00
2018-06-27T19:44:40.781Z,29.70
2018-06-27T19:47:08.291Z,29.50
2018-06-27T19:49:35.766Z,29.20
2018-06-27T19:52:03.252Z,28.90
2018-06-27T19:54:30.724Z,28.70
2018-06-27T19:56:58.153Z,28.40
2018-06-27T19:59:25.777Z,28.20
2018-06-27T20:01:53.276Z,28.00
2018-06-27T20:04:20.709Z,27.80
2018-06-27T20:06:48.172Z,27.60
2018-06-27T20:09:15.620Z,27.40
2018-06-27T20:11:43.062Z,27.20
2018-06-27T20:14:10.630Z,27.00
2018-06-27T20:16:38.081Z,26.80
2018-06-27T20:19:05.514Z,26.60
2018-06-27T20:21:33.045Z,26.50
2018-06-27T20:24:00.529Z,26.30
2018-06-27T20:26:27.922Z,26.20
2018-06-27T20:28:55.357Z,26.00
2018-06-27T20:31:22.817Z,25.80
2018-06-27T20:33:50.250Z,25.50
2018-06-27T20:36:17.692Z,25.50
2018-06-27T20:38:45.148Z,25.40
2018-06-27T20:41:12.837Z,25.20
2018-06-27T20:43:40.260Z,25.10
2018-06-27T20:46:08.079Z,25.00
2018-06-27T20:48:35.876Z,24.90
2018-06-27T20:51:03.625Z,24.70
2018-06-27T20:53:31.115Z,24.60
2018-06-27T20:55:58.585Z,24.50
2018-06-27T20:58:26.043Z,24.40
2018-06-27T21:00:53.742Z,24.30
2018-06-27T21:03:21.203Z,24.20
2018-06-27T21:05:48.679Z,24.10
2018-06-27T21:08:17.722Z,24.00
2018-06-27T21:10:45.349Z,23.90
2018-06-27T21:13:12.804Z,23.80
2018-06-27T21:15:40.625Z,23.70
2018-06-27T21:18:08.064Z,23.60
2018-06-27T21:20:35.483Z,23.50
2018-06-27T21:23:02.975Z,23.40
2018-06-27T21:25:30.460Z,23.30
2018-06-27T21:27:57.923Z,23.20
2018-06-27T21:30:25.352Z,23.10
2018-06-27T21:32:52.812Z,23.10
2018-06-27T21:35:20.263Z,23.00
2018-06-27T21:37:47.808Z,22.90
2018-06-27T21:40:15.261Z,22.80
2018-06-27T21:42:42.684Z,22.80
2018-06-27T21:45:10.136Z,22.70
2018-06-27T21:47:37.560Z,22.70
2018-06-27T21:50:05.116Z,22.60
2018-06-27T21:52:32.529Z,22.60
2018-06-27T21:54:59.948Z,22.60
2018-06-27T21:57:27.377Z,22.50
2018-06-27T21:59:54.949Z,22.50
2018-06-27T22:02:22.468Z,22.50
2018-06-27T22:04:49.880Z,22.40
2018-06-27T22:07:17.532Z,22.40
2018-06-27T22:09:44.962Z,22.30
2018-06-27T22:12:12.480Z,22.30
2018-06-27T22:14:40.193Z,22.30
2018-06-27T22:17:07.635Z,22.30
2018-06-27T22:19:35.125Z,22.20
2018-06-27T22:22:02.572Z,22.20
2018-06-27T22:24:29.989Z,22.20
2018-06-27T22:26:57.522Z,22.20
2018-06-27T22:29:25.003Z,22.10
2018-06-27T22:31:52.397Z,22.10
2018-06-27T22:34:19.833Z,22.10
2018-06-27T22:36:47.313Z,22.10
2018-06-27T22:39:14.965Z,22.00
2018-06-27T22:41:42.480Z,22.00
2018-06-27T22:44:09.949Z,22.00
2018-06-27T22:46:37.448Z,22.00
2018-06-27T22:49:05.103Z,22.00
2018-06-27T22:51:32.531Z,22.00
2018-06-27T22:54:00.041Z,21.90
2018-06-27T22:56:27.515Z,21.90
2018-06-27T22:58:55.120Z,21.90
2018-06-27T23:01:22.561Z,21.90
2018-06-27T23:03:50.028Z,21.80
2018-06-27T23:06:17.443Z,21.80
2018-06-27T23:08:44.890Z,21.80
2018-06-27T23:11:12.386Z,21.80
2018-06-27T23:13:39.788Z,21.70
2018-06-27T23:16:07.276Z,21.70
2018-06-27T23:18:34.976Z,21.70
2018-06-27T23:21:02.558Z,21.70
2018-06-27T23:23:29.953Z,21.60
2018-06-27T23:25:57.414Z,21.60
2018-06-27T23:28:24.812Z,21.60
2018-06-27T23:30:52.256Z,21.60
2018-06-27T23:33:19.704Z,21.60
2018-06-27T23:35:47.151Z,21.50
2018-06-27T23:38:14.592Z,21.50
2018-06-27T23:40:42.083Z,21.50
2018-06-27T23:43:09.483Z,21.50
2018-06-27T23:45:36.892Z,21.40
2018-06-27T23:48:04.662Z,21.40
2018-06-27T23:50:32.058Z,21.40
2018-06-27T23:52:59.443Z,21.40
2018-06-27T23:55:26.880Z,21.40
2018-06-27T23:57:54.280Z,21.40
